Time;durP1;ratioP1;P1;durP2;ratioP2;P2;SDS_P1;SDS_P2;PMS_P1;PMS_P2;Temp;Humidity;BMP_temperature;BMP_pressure;BME280_temperature;BME280_humidity;BME280_pressure;Samples;Min_cycle;Max_cycle;Signal;HPM_P1;HPM_P2
2024/02/13 00:00:32;;;;;;;;;;;;;;;;;;4969519;28;89147;-69
2024/02/13 00:02:58;;;;;;;;;;;;;;;;;;4970137;28;90015;-69
2024/02/13 00:05:24;;;;;;;;;;;;;;;;;;4972693;28;89138;-68
2024/02/13 00:07:50;;;;;;;;;;;;;;;;;;4970027;28;90975;-68
2024/02/13 00:10:15;;;;;;;;;;;;;;;;;;4970223;28;90090;-68
2024/02/13 00:12:40;;;;;;;;;;;;;;;;;;4965431;28;90153;-68
2024/02/13 00:15:14;;;;;;;;;;;;;;;;;;4950205;28;89827;-68
2024/02/13 00:17:41;;;;;;;;;;;;;;;;;;4950504;28;89160;-68
2024/02/13 00:20:08;;;;;;;;;;;;;;;;;;4950708;28;88992;-68
2024/02/13 00:22:35;;;;;;;;;;;;;;;;;;4952835;28;89760;-68
2024/02/13 00:25:00;;;;;;;;;;;;;;;;;;4950450;28;90101;-68
2024/02/13 00:27:25;;;;;;;;;;;;;;;;;;4953566;28;89032;-68
2024/02/13 00:29:51;;;;;;;;;;;;;;;;;;4950219;28;89296;-69
2024/02/13 00:32:17;;;;;;;;;;;;;;;;;;4950159;28;89047;-69
2024/02/13 00:34:44;;;;;;;;;;;;;;;;;;4950401;28;89515;-69
2024/02/13 00:37:10;;;;;;;;;;;;;;;;;;4950212;28;89635;-69
2024/02/13 00:39:35;;;;;;;;;;;;;;;;;;4949637;28;89243;-69
2024/02/13 00:42:02;;;;;;;;;;;;;;;;;;4950062;28;89577;-69
2024/02/13 00:44:27;;;;;;;;;;;;;;;;;;4949888;28;89591;-69
2024/02/13 00:46:53;;;;;;;;;;;;;;;;;;4949703;28;89435;-69
2024/02/13 00:49:21;;;;;;;;;;;;;;;;;;4953134;28;89504;-69
2024/02/13 00:51:46;;;;;;;;;;;;;;;;;;4949872;28;89074;-68
2024/02/13 00:54:13;;;;;;;;;;;;;;;;;;4949719;28;89841;-69
2024/02/13 00:56:39;;;;;;;;;;;;;;;;;;4950601;28;89185;-68
2024/02/13 00:59:04;;;;;;;;;;;;;;;;;;4949755;28;89957;-68
2024/02/13 01:01:30;;;;;;;;;;;;;;;;;;4949643;28;90523;-69
2024/02/13 01:03:55;;;;;;;;;;;;;;;;;;4949245;28;89171;-69
2024/02/13 01:06:22;;;;;;;;;;;;;;;;;;4950094;28;89635;-69
2024/02/13 01:08:47;;;;;;;;;;;;;;;;;;4949350;28;89487;-69
2024/02/13 01:11:13;;;;;;;;;;;;;;;;;;4951852;28;89633;-68
2024/02/13 01:13:38;;;;;;;;;;;;;;;;;;4949498;28;89498;-68
2024/02/13 01:16:03;;;;;;;;;;;;;;;;;;4949381;28;89569;-68
2024/02/13 01:18:29;;;;;;;;;;;;;;;;;;4949490;28;89619;-68
2024/02/13 01:20:54;;;;;;;;;;;;;;;;;;4949380;28;89249;-69
2024/02/13 01:23:19;;;;;;;;;;;;;;;;;;4947895;28;91892;-68
2024/02/13 01:25:44;;;;;;;;;;;;;;;;;;4949601;28;89504;-68
2024/02/13 01:28:09;;;;;;;;;;;;;;;;;;4949267;28;89240;-68
2024/02/13 01:30:35;;;;;;;;;;;;;;;;;;4951272;28;89324;-68
2024/02/13 01:33:00;;;;;;;;;;;;;;;;;;4949049;28;89494;-68
2024/02/13 01:35:25;;;;;;;;;;;;;;;;;;4948965;28;89474;-69
2024/02/13 01:37:51;;;;;;;;;;;;;;;;;;4949093;28;89110;-69
2024/02/13 01:40:17;;;;;;;;;;;;;;;;;;4949481;28;89511;-68
2024/02/13 01:42:44;;;;;;;;;;;;;;;;;;4949221;28;89033;-69
2024/02/13 01:45:12;;;;;;;;;;;;;;;;;;4949525;28;89010;-68
2024/02/13 01:47:41;;;;;;;;;;;;;;;;;;4949587;28;89487;-68
2024/02/13 01:50:08;;;;;;;;;;;;;;;;;;4948916;28;89466;-69
2024/02/13 01:52:35;;;;;;;;;;;;;;;;;;4951006;28;89549;-69
2024/02/13 01:55:02;;;;;;;;;;;;;;;;;;4948212;28;89258;-68
2024/02/13 01:57:29;;;;;;;;;;;;;;;;;;4948648;28;89435;-68
2024/02/13 01:59:55;;;;;;;;;;;;;;;;;;4948632;28;90707;-68
2024/02/13 02:02:20;;;;;;;;;;;;;;;;;;4961411;28;89459;-68
2024/02/13 02:04:45;;;;;;;;;;;;;;;;;;4968594;28;89110;-69
2024/02/13 02:07:12;;;;;;;;;;;;;;;;;;4968936;28;89451;-68
2024/02/13 02:09:37;;;;;;;;;;;;;;;;;;4968412;28;91230;-68
2024/02/13 02:12:04;;;;;;;;;;;;;;;;;;4968462;28;90330;-68
2024/02/13 02:14:30;;;;;;;;;;;;;;;;;;4970888;28;89688;-68
2024/02/13 02:17:05;;;;;;;;;;;;;;;;;;4964615;28;89605;-68
2024/02/13 02:19:32;;;;;;;;;;;;;;;;;;4966765;28;90747;-68
2024/02/13 02:21:58;;;;;;;;;;;;;;;;;;4966000;28;90266;-68
2024/02/13 02:24:26;;;;;;;;;;;;;;;;;;4967072;28;89423;-68
2024/02/13 02:26:51;;;;;;;;;;;;;;;;;;4967819;28;90796;-68
2024/02/13 02:29:17;;;;;;;;;;;;;;;;;;4966300;28;92064;-69
2024/02/13 02:31:42;;;;;;;;;;;;;;;;;;4967409;28;89074;-68
2024/02/13 02:34:09;;;;;;;;;;;;;;;;;;4963816;28;89512;-69
2024/02/13 02:36:34;;;;;;;;;;;;;;;;;;4970564;28;89078;-68
2024/02/13 02:38:59;;;;;;;;;;;;;;;;;;4966559;28;90830;-68
2024/02/13 02:41:25;;;;;;;;;;;;;;;;;;4967495;28;89684;-68
2024/02/13 02:43:50;;;;;;;;;;;;;;;;;;4967671;28;89793;-69
2024/02/13 02:46:15;;;;;;;;;;;;;;;;;;4967922;28;89483;-68
2024/02/13 02:48:40;;;;;;;;;;;;;;;;;;4967430;28;88993;-68
2024/02/13 02:51:05;;;;;;;;;;;;;;;;;;4967591;28;89215;-68
2024/02/13 02:53:31;;;;;;;;;;;;;;;;;;4967641;28;90725;-68
2024/02/13 02:55:56;;;;;;;;;;;;;;;;;;4967602;28;90131;-68
2024/02/13 02:58:21;;;;;;;;;;;;;;;;;;4969265;28;89719;-68
2024/02/13 03:00:48;;;;;;;;;;;;;;;;;;4967478;28;90175;-68
2024/02/13 03:03:13;;;;;;;;;;;;;;;;;;4948252;28;90460;-68
2024/02/13 03:05:40;;;;;;;;;;;;;;;;;;4947691;28;89766;-68
2024/02/13 03:08:07;;;;;;;;;;;;;;;;;;4947836;28;89353;-68
2024/02/13 03:10:32;;;;;;;;;;;;;;;;;;4947665;28;89022;-69
2024/02/13 03:12:58;;;;;;;;;;;;;;;;;;4947608;28;89634;-68
2024/02/13 03:15:24;;;;;;;;;;;;;;;;;;4948059;28;90244;-68
2024/02/13 03:17:50;;;;;;;;;;;;;;;;;;4947682;28;89414;-69
2024/02/13 03:20:15;;;;;;;;;;;;;;;;;;4950195;28;89211;-68
2024/02/13 03:22:40;;;;;;;;;;;;;;;;;;4948503;28;89551;-68
2024/02/13 03:25:06;;;;;;;;;;;;;;;;;;4947524;28;89504;-68
2024/02/13 03:27:31;;;;;;;;;;;;;;;;;;4947535;28;89256;-68
2024/02/13 03:29:56;;;;;;;;;;;;;;;;;;4947129;28;88979;-68
2024/02/13 03:32:21;;;;;;;;;;;;;;;;;;4947465;28;89764;-68
2024/02/13 03:34:47;;;;;;;;;;;;;;;;;;4946818;28;89672;-68
2024/02/13 03:37:12;;;;;;;;;;;;;;;;;;4947834;28;89117;-68
2024/02/13 03:39:37;;;;;;;;;;;;;;;;;;4950132;28;89673;-68
2024/02/13 03:42:03;;;;;;;;;;;;;;;;;;4947672;28;89366;-68
2024/02/13 03:44:28;;;;;;;;;;;;;;;;;;4947951;28;90643;-69
2024/02/13 03:46:53;;;;;;;;;;;;;;;;;;4947775;28;89219;-68
2024/02/13 03:49:18;;;;;;;;;;;;;;;;;;4947724;28;89693;-69
2024/02/13 03:51:44;;;;;;;;;;;;;;;;;;4947696;28;89909;-68
2024/02/13 03:54:09;;;;;;;;;;;;;;;;;;4947622;28;90815;-68
2024/02/13 03:56:37;;;;;;;;;;;;;;;;;;4947201;28;88998;-68
2024/02/13 03:59:02;;;;;;;;;;;;;;;;;;4947201;28;90732;-68
2024/02/13 04:01:28;;;;;;;;;;;;;;;;;;4951636;28;89588;-69
2024/02/13 04:03:53;;;;;;;;;;;;;;;;;;4960685;28;90485;-68
2024/02/13 04:06:18;;;;;;;;;;;;;;;;;;4956708;28;90583;-68
2024/02/13 04:08:45;;;;;;;;;;;;;;;;;;4954030;28;90042;-68
2024/02/13 04:11:11;;;;;;;;;;;;;;;;;;4949766;28;91095;-68
2024/02/13 04:13:36;;;;;;;;;;;;;;;;;;4956759;28;90154;-69
2024/02/13 04:16:02;;;;;;;;;;;;;;;;;;4956339;28;89335;-69
2024/02/13 04:18:27;;;;;;;;;;;;;;;;;;4953738;28;91009;-68
2024/02/13 04:20:53;;;;;;;;;;;;;;;;;;4950704;28;89688;-68
2024/02/13 04:23:19;;;;;;;;;;;;;;;;;;4968290;28;89698;-68
2024/02/13 04:25:44;;;;;;;;;;;;;;;;;;4956617;28;89963;-68
2024/02/13 04:28:10;;;;;;;;;;;;;;;;;;4949064;28;89407;-68
2024/02/13 04:30:40;;;;;;;;;;;;;;;;;;4954539;28;89572;-68
2024/02/13 04:33:08;;;;;;;;;;;;;;;;;;4956491;28;90050;-68
2024/02/13 04:35:34;;;;;;;;;;;;;;;;;;4957078;28;89481;-68
2024/02/13 04:38:00;;;;;;;;;;;;;;;;;;4945962;28;90869;-68
2024/02/13 04:40:25;;;;;;;;;;;;;;;;;;4961616;28;89732;-67
2024/02/13 04:42:51;;;;;;;;;;;;;;;;;;4956464;28;89779;-68
2024/02/13 04:45:16;;;;;;;;;;;;;;;;;;4971853;28;92223;-68
2024/02/13 04:47:41;;;;;;;;;;;;;;;;;;4957742;28;89583;-68
2024/02/13 04:50:07;;;;;;;;;;;;;;;;;;4955668;28;89644;-68
2024/02/13 04:52:32;;;;;;;;;;;;;;;;;;4951791;28;89216;-67
2024/02/13 04:54:57;;;;;;;;;;;;;;;;;;4960892;28;90085;-67
2024/02/13 04:57:24;;;;;;;;;;;;;;;;;;4957525;28;89570;-68
2024/02/13 04:59:49;;;;;;;;;;;;;;;;;;4957866;28;92227;-68
2024/02/13 05:02:19;;;;;;;;;;;;;;;;;;4955050;28;90034;-68
2024/02/13 05:07:29;;;;;;;;;;;;;;;;;;4958972;28;89724;-68
2024/02/13 05:10:02;;;;;;;;;;;;;;;;;;4955873;28;89501;-69
2024/02/13 05:12:27;;;;;;;;;;;;;;;;;;4953788;28;89405;-67
2024/02/13 05:14:52;;;;;;;;;;;;;;;;;;4957200;28;89532;-68
2024/02/13 05:17:24;;;;;;;;;;;;;;;;;;4952409;28;90638;-68
2024/02/13 05:19:49;;;;;;;;;;;;;;;;;;4955093;28;90642;-68
2024/02/13 05:22:19;;;;;;;;;;;;;;;;;;4958201;28;89341;-69
2024/02/13 05:24:45;;;;;;;;;;;;;;;;;;4954486;28;89868;-69
2024/02/13 05:27:11;;;;;;;;;;;;;;;;;;4956453;28;90188;-67
2024/02/13 05:29:37;;;;;;;;;;;;;;;;;;4957842;28;90759;-68
2024/02/13 05:32:05;;;;;;;;;;;;;;;;;;4956003;28;89738;-68
2024/02/13 05:34:30;;;;;;;;;;;;;;;;;;4955850;28;89513;-68
2024/02/13 05:36:59;;;;;;;;;;;;;;;;;;4959717;28;89188;-68
2024/02/13 05:39:25;;;;;;;;;;;;;;;;;;4951442;28;89641;-68
2024/02/13 05:41:50;;;;;;;;;;;;;;;;;;4956121;28;89258;-68
2024/02/13 05:44:16;;;;;;;;;;;;;;;;;;4955874;28;90586;-68
2024/02/13 05:46:42;;;;;;;;;;;;;;;;;;4953922;28;90225;-68
2024/02/13 05:49:08;;;;;;;;;;;;;;;;;;4958249;28;89485;-67
2024/02/13 05:51:34;;;;;;;;;;;;;;;;;;4958516;28;89430;-68
2024/02/13 05:54:03;;;;;;;;;;;;;;;;;;4953494;28;89788;-68
2024/02/13 05:56:28;;;;;;;;;;;;;;;;;;4953352;28;89623;-68
2024/02/13 05:58:55;;;;;;;;;;;;;;;;;;4956457;28;89717;-67
2024/02/13 06:01:21;;;;;;;;;;;;;;;;;;4958944;28;88994;-68
2024/02/13 06:03:46;;;;;;;;;;;;;;;;;;4958022;28;89700;-68
2024/02/13 06:06:11;;;;;;;;;;;;;;;;;;4955584;28;89414;-68
2024/02/13 06:08:36;;;;;;;;;;;;;;;;;;4959249;28;89052;-68
2024/02/13 06:11:02;;;;;;;;;;;;;;;;;;4956719;28;90513;-68
2024/02/13 06:13:27;;;;;;;;;;;;;;;;;;4958714;28;89078;-68
2024/02/13 06:15:53;;;;;;;;;;;;;;;;;;4959353;28;91106;-68
2024/02/13 06:18:18;;;;;;;;;;;;;;;;;;4959434;28;89828;-68
2024/02/13 06:20:43;;;;;;;;;;;;;;;;;;4962849;28;89453;-68
2024/02/13 06:23:08;;;;;;;;;;;;;;;;;;4957298;28;89350;-68
2024/02/13 06:25:34;;;;;;;;;;;;;;;;;;4953468;28;89995;-67
2024/02/13 06:27:59;;;;;;;;;;;;;;;;;;4960394;28;90664;-68
2024/02/13 06:30:25;;;;;;;;;;;;;;;;;;4954819;28;90360;-67
2024/02/13 06:32:51;;;;;;;;;;;;;;;;;;4961002;28;93301;-67
2024/02/13 06:35:16;;;;;;;;;;;;;;;;;;4955823;28;90702;-68
2024/02/13 06:37:42;;;;;;;;;;;;;;;;;;4955476;28;89829;-67
2024/02/13 06:40:07;;;;;;;;;;;;;;;;;;4955174;28;91032;-67
2024/02/13 06:42:33;;;;;;;;;;;;;;;;;;4955119;28;89842;-67
2024/02/13 06:44:58;;;;;;;;;;;;;;;;;;4957125;28;89454;-68
2024/02/13 06:47:25;;;;;;;;;;;;;;;;;;4949954;28;90676;-68
2024/02/13 06:49:51;;;;;;;;;;;;;;;;;;4957540;28;90666;-67
2024/02/13 06:52:16;;;;;;;;;;;;;;;;;;4957134;28;90392;-67
2024/02/13 06:54:41;;;;;;;;;;;;;;;;;;4955465;28;89107;-67
2024/02/13 06:57:07;;;;;;;;;;;;;;;;;;4953415;28;89430;-67
2024/02/13 06:59:32;;;;;;;;;;;;;;;;;;4956174;28;89019;-67
2024/02/13 07:01:59;;;;;;;;;;;;;;;;;;4960962;28;89531;-67
2024/02/13 07:04:25;;;;;;;;;;;;;;;;;;4956366;28;89759;-67
2024/02/13 07:06:55;;;;;;;;;;;;;;;;;;4957810;28;89580;-68
2024/02/13 07:09:22;;;;;;;;;;;;;;;;;;4955479;28;90523;-70
2024/02/13 07:11:48;;;;;;;;;;;;;;;;;;4955039;28;90316;-69
2024/02/13 07:14:13;;;;;;;;;;;;;;;;;;4956119;28;89608;-68
2024/02/13 07:16:38;;;;;;;;;;;;;;;;;;4959434;28;90485;-70
2024/02/13 07:19:04;;;;;;;;;;;;;;;;;;4969035;28;90311;-69
2024/02/13 07:21:33;;;;;;;;;;;;;;;;;;4956235;28;90506;-68
2024/02/13 07:23:58;;;;;;;;;;;;;;;;;;4956427;28;90373;-69
2024/02/13 07:26:24;;;;;;;;;;;;;;;;;;4958679;28;89885;-70
2024/02/13 07:28:49;;;;;;;;;;;;;;;;;;4956625;28;90515;-69
2024/02/13 07:31:19;;;;;;;;;;;;;;;;;;4954372;28;89685;-70
2024/02/13 07:33:45;;;;;;;;;;;;;;;;;;4959430;28;90489;-70
2024/02/13 07:36:10;;;;;;;;;;;;;;;;;;4963620;28;89865;-70
2024/02/13 07:38:35;;;;;;;;;;;;;;;;;;4962112;28;89028;-70
2024/02/13 07:41:01;;;;;;;;;;;;;;;;;;4957463;28;89731;-70
2024/02/13 07:43:27;;;;;;;;;;;;;;;;;;4961600;28;89567;-70
2024/02/13 07:45:52;;;;;;;;;;;;;;;;;;4960047;28;90759;-70
2024/02/13 07:48:17;;;;;;;;;;;;;;;;;;4958650;28;91263;-70
2024/02/13 07:50:42;;;;;;;;;;;;;;;;;;4961492;28;89213;-70
2024/02/13 07:53:10;;;;;;;;;;;;;;;;;;4961686;28;89148;-71
2024/02/13 07:55:35;;;;;;;;;;;;;;;;;;4960469;28;89788;-69
2024/02/13 07:58:04;;;;;;;;;;;;;;;;;;4963332;28;89305;-70
2024/02/13 08:00:29;;;;;;;;;;;;;;;;;;4957873;28;90022;-71
2024/02/13 08:02:55;;;;;;;;;;;;;;;;;;4965304;28;90776;-69
2024/02/13 08:05:20;;;;;;;;;;;;;;;;;;4954938;28;89475;-69
2024/02/13 08:07:45;;;;;;;;;;;;;;;;;;4954987;28;89530;-68
2024/02/13 08:10:11;;;;;;;;;;;;;;;;;;4955035;28;89204;-68
2024/02/13 08:12:37;;;;;;;;;;;;;;;;;;4956631;28;89669;-74
2024/02/13 08:15:03;;;;;;;;;;;;;;;;;;4956393;28;90353;-70
2024/02/13 08:17:29;;;;;;;;;;;;;;;;;;4960552;28;89840;-70
2024/02/13 08:19:56;;;;;;;;;;;;;;;;;;4961676;28;90680;-69
2024/02/13 08:22:22;;;;;;;;;;;;;;;;;;4966158;28;91999;-70
2024/02/13 08:24:47;;;;;;;;;;;;;;;;;;4960567;28;92048;-69
2024/02/13 08:27:12;;;;;;;;;;;;;;;;;;4962605;28;89434;-68
2024/02/13 08:29:37;;;;;;;;;;;;;;;;;;4974054;28;90155;-69
2024/02/13 08:32:06;;;;;;;;;;;;;;;;;;4964341;28;89443;-69
2024/02/13 08:34:31;;;;;;;;;;;;;;;;;;4958219;28;89531;-68
2024/02/13 08:36:56;;;;;;;;;;;;;;;;;;4956470;28;89788;-70
2024/02/13 08:39:22;;;;;;;;;;;;;;;;;;4959873;28;89054;-73
2024/02/13 08:41:47;;;;;;;;;;;;;;;;;;4962734;28;90872;-69
2024/02/13 08:44:12;;;;;;;;;;;;;;;;;;4953731;28;89491;-70
2024/02/13 08:46:37;;;;;;;;;;;;;;;;;;4957198;28;90681;-68
2024/02/13 08:49:04;;;;;;;;;;;;;;;;;;4962417;28;89217;-68
2024/02/13 08:51:30;;;;;;;;;;;;;;;;;;4955746;28;90304;-68
2024/02/13 08:53:56;;;;;;;;;;;;;;;;;;4959749;28;90586;-68
2024/02/13 08:56:21;;;;;;;;;;;;;;;;;;4958788;28;90158;-69
2024/02/13 08:58:52;;;;;;;;;;;;;;;;;;4966519;28;89118;-69
2024/02/13 09:01:19;;;;;;;;;;;;;;;;;;4951989;28;89636;-69
2024/02/13 09:03:46;;;;;;;;;;;;;;;;;;4963927;28;90298;-68
2024/02/13 09:06:12;;;;;;;;;;;;;;;;;;4965411;28;90475;-68
2024/02/13 09:08:37;;;;;;;;;;;;;;;;;;4963412;28;89757;-68
2024/02/13 09:11:03;;;;;;;;;;;;;;;;;;4959953;28;89653;-70
2024/02/13 09:13:28;;;;;;;;;;;;;;;;;;4956542;28;89788;-70
2024/02/13 09:15:55;;;;;;;;;;;;;;;;;;4959970;28;89469;-72
2024/02/13 09:18:21;;;;;;;;;;;;;;;;;;4957596;28;89807;-70
2024/02/13 09:20:46;;;;;;;;;;;;;;;;;;4957691;28;90615;-69
2024/02/13 09:23:12;;;;;;;;;;;;;;;;;;4957441;28;89279;-70
2024/02/13 09:25:38;;;;;;;;;;;;;;;;;;4962042;28;89709;-69
2024/02/13 09:28:04;;;;;;;;;;;;;;;;;;4960495;28;89095;-69
2024/02/13 09:30:29;;;;;;;;;;;;;;;;;;4966251;28;89051;-70
2024/02/13 09:32:55;;;;;;;;;;;;;;;;;;4961218;28;90362;-70
2024/02/13 09:35:20;;;;;;;;;;;;;;;;;;4959347;28;90597;-70
2024/02/13 09:37:45;;;;;;;;;;;;;;;;;;4958913;28;90575;-69
2024/02/13 09:40:14;;;;;;;;;;;;;;;;;;4957332;28;92554;-70
2024/02/13 09:42:41;;;;;;;;;;;;;;;;;;4958395;28;89146;-70
2024/02/13 09:45:07;;;;;;;;;;;;;;;;;;4961152;28;89074;-70
2024/02/13 09:47:33;;;;;;;;;;;;;;;;;;4959503;28;90546;-70
2024/02/13 09:49:59;;;;;;;;;;;;;;;;;;4959714;28;89710;-69
2024/02/13 09:52:29;;;;;;;;;;;;;;;;;;4958903;28;89450;-69
2024/02/13 09:54:54;;;;;;;;;;;;;;;;;;4957198;28;90457;-70
2024/02/13 09:57:20;;;;;;;;;;;;;;;;;;4957009;28;89553;-70
2024/02/13 09:59:45;;;;;;;;;;;;;;;;;;4960152;28;89606;-68
2024/02/13 10:02:12;;;;;;;;;;;;;;;;;;4956411;28;90958;-68
2024/02/13 10:04:39;;;;;;;;;;;;;;;;;;4966205;28;91047;-69
2024/02/13 10:07:04;;;;;;;;;;;;;;;;;;4961103;28;90759;-69
2024/02/13 10:09:32;;;;;;;;;;;;;;;;;;4959542;28;89191;-69
2024/02/13 10:11:58;;;;;;;;;;;;;;;;;;4956767;28;89582;-69
2024/02/13 10:14:23;;;;;;;;;;;;;;;;;;4960713;28;90181;-69
2024/02/13 10:16:50;;;;;;;;;;;;;;;;;;4955492;28;89678;-69
2024/02/13 10:19:16;;;;;;;;;;;;;;;;;;4962530;28;90679;-69
2024/02/13 10:21:42;;;;;;;;;;;;;;;;;;4962103;28;90662;-71
2024/02/13 10:24:09;;;;;;;;;;;;;;;;;;4966613;28;89472;-69
2024/02/13 10:26:34;;;;;;;;;;;;;;;;;;4957332;28;89719;-69
2024/02/13 10:29:00;;;;;;;;;;;;;;;;;;4961569;28;89181;-69
2024/02/13 10:31:26;;;;;;;;;;;;;;;;;;4959048;28;89942;-73
2024/02/13 10:33:51;;;;;;;;;;;;;;;;;;4960989;28;91832;-71
2024/02/13 10:36:16;;;;;;;;;;;;;;;;;;4958105;28;89511;-70
2024/02/13 10:38:47;;;;;;;;;;;;;;;;;;4959460;28;89092;-69
2024/02/13 10:41:19;;;;;;;;;;;;;;;;;;4958408;28;89235;-69
2024/02/13 10:43:46;;;;;;;;;;;;;;;;;;4957970;28;89543;-67
2024/02/13 10:46:13;;;;;;;;;;;;;;;;;;4959179;28;89565;-68
2024/02/13 10:48:38;;;;;;;;;;;;;;;;;;4961112;28;89250;-70
2024/02/13 10:51:03;;;;;;;;;;;;;;;;;;4965799;28;89780;-70
2024/02/13 10:53:32;;;;;;;;;;;;;;;;;;4959331;28;89794;-67
2024/02/13 10:55:57;;;;;;;;;;;;;;;;;;4966845;28;89250;-72
2024/02/13 10:58:29;;;;;;;;;;;;;;;;;;4964958;28;89537;-69
2024/02/13 11:00:55;;;;;;;;;;;;;;;;;;4956946;28;90145;-69
2024/02/13 11:03:22;;;;;;;;;;;;;;;;;;4959831;28;90540;-70
2024/02/13 11:05:47;;;;;;;;;;;;;;;;;;4960537;28;89596;-69
2024/02/13 11:08:13;;;;;;;;;;;;;;;;;;4956602;28;89171;-68
2024/02/13 11:10:41;;;;;;;;;;;;;;;;;;4954324;28;89360;-70
2024/02/13 11:13:09;;;;;;;;;;;;;;;;;;4959005;28;90838;-73
2024/02/13 11:15:37;;;;;;;;;;;;;;;;;;4957535;28;89828;-72
2024/02/13 11:18:07;;;;;;;;;;;;;;;;;;4957054;28;90746;-73
2024/02/13 11:20:37;;;;;;;;;;;;;;;;;;4960557;28;91093;-75
2024/02/13 11:23:10;;;;;;;;;;;;;;;;;;4955342;28;89735;-69
2024/02/13 11:25:39;;;;;;;;;;;;;;;;;;4960699;28;89481;-69
2024/02/13 11:28:08;;;;;;;;;;;;;;;;;;4961097;28;90313;-68
2024/02/13 11:30:37;;;;;;;;;;;;;;;;;;4963825;28;89064;-70
2024/02/13 11:33:05;;;;;;;;;;;;;;;;;;4958363;28;89566;-68
2024/02/13 11:35:31;;;;;;;;;;;;;;;;;;4958610;28;90402;-69
2024/02/13 11:38:01;;;;;;;;;;;;;;;;;;4962494;28;90127;-69
2024/02/13 11:40:26;;;;;;;;;;;;;;;;;;4958036;28;90425;-69
2024/02/13 11:42:51;;;;;;;;;;;;;;;;;;4953610;28;90668;-70
2024/02/13 11:45:26;;;;;;;;;;;;;;;;;;4935847;28;90693;-69
2024/02/13 11:47:52;;;;;;;;;;;;;;;;;;4935424;28;90348;-69
2024/02/13 11:50:18;;;;;;;;;;;;;;;;;;4945378;28;89028;-69
2024/02/13 11:52:44;;;;;;;;;;;;;;;;;;4941153;28;91630;-69
2024/02/13 11:55:10;;;;;;;;;;;;;;;;;;4946195;28;90505;-69
2024/02/13 11:57:37;;;;;;;;;;;;;;;;;;4945319;28;90709;-69
2024/02/13 12:00:05;;;;;;;;;;;;;;;;;;4943311;28;92164;-69
2024/02/13 12:02:35;;;;;;;;;;;;;;;;;;4938015;28;89668;-69
2024/02/13 12:05:00;;;;;;;;;;;;;;;;;;4942857;28;89555;-69
2024/02/13 12:07:27;;;;;;;;;;;;;;;;;;4938926;28;89442;-68
2024/02/13 12:09:52;;;;;;;;;;;;;;;;;;4939534;28;89719;-69
2024/02/13 12:12:18;;;;;;;;;;;;;;;;;;4942574;28;89954;-69
2024/02/13 12:14:43;;;;;;;;;;;;;;;;;;4937305;28;89907;-69
2024/02/13 12:17:12;;;;;;;;;;;;;;;;;;4950765;28;90367;-69
2024/02/13 12:19:39;;;;;;;;;;;;;;;;;;4939354;28;89334;-69
2024/02/13 12:22:08;;;;;;;;;;;;;;;;;;4937878;28;89818;-70
2024/02/13 12:24:34;;;;;;;;;;;;;;;;;;4942136;28;90039;-68
2024/02/13 12:26:59;;;;;;;;;;;;;;;;;;4939993;28;89265;-74
2024/02/13 12:29:24;;;;;;;;;;;;;;;;;;4938276;28;89435;-77
2024/02/13 12:31:50;;;;;;;;;;;;;;;;;;4933793;28;89622;-78
2024/02/13 12:34:16;;;;;;;;;;;;;;;;;;4944825;28;91913;-76
2024/02/13 12:36:41;;;;;;;;;;;;;;;;;;4941414;28;89932;-74
2024/02/13 12:39:25;;;;;;;;;;;;;;;;;;4942457;28;90792;-72
2024/02/13 12:41:51;;;;;;;;;;;;;;;;;;4944155;28;89243;-76
2024/02/13 12:44:17;;;;;;;;;;;;;;;;;;4942691;28;90611;-75
2024/02/13 12:46:42;;;;;;;;;;;;;;;;;;4938130;28;92034;-75
2024/02/13 12:49:10;;;;;;;;;;;;;;;;;;4940546;28;89778;-75
2024/02/13 12:51:35;;;;;;;;;;;;;;;;;;4940642;28;91554;-74
2024/02/13 12:54:05;;;;;;;;;;;;;;;;;;4939959;28;90386;-73
2024/02/13 12:56:30;;;;;;;;;;;;;;;;;;4942005;28;89848;-71
2024/02/13 12:58:56;;;;;;;;;;;;;;;;;;4942048;28;89885;-76
2024/02/13 13:01:23;;;;;;;;;;;;;;;;;;4946953;28;90534;-71
2024/02/13 13:03:49;;;;;;;;;;;;;;;;;;4939215;28;89546;-72
2024/02/13 13:06:15;;;;;;;;;;;;;;;;;;4938000;28;89196;-71
2024/02/13 13:08:42;;;;;;;;;;;;;;;;;;4939788;28;89927;-69
2024/02/13 13:11:07;;;;;;;;;;;;;;;;;;4944600;28;90968;-69
2024/02/13 13:13:33;;;;;;;;;;;;;;;;;;4939356;28;89703;-73
2024/02/13 13:15:59;;;;;;;;;;;;;;;;;;4937121;28;89605;-70
2024/02/13 13:18:24;;;;;;;;;;;;;;;;;;4935033;28;89394;-75
2024/02/13 13:20:50;;;;;;;;;;;;;;;;;;4933360;28;89564;-70
2024/02/13 13:23:16;;;;;;;;;;;;;;;;;;4942766;28;89167;-70
2024/02/13 13:25:51;;;;;;;;;;;;;;;;;;4937809;28;90283;-73
2024/02/13 13:28:17;;;;;;;;;;;;;;;;;;4938068;28;89743;-72
2024/02/13 13:30:45;;;;;;;;;;;;;;;;;;4931467;28;89621;-74
2024/02/13 13:33:14;;;;;;;;;;;;;;;;;;4936326;28;90235;-75
2024/02/13 13:35:40;;;;;;;;;;;;;;;;;;4939201;28;89442;-72
2024/02/13 13:38:05;;;;;;;;;;;;;;;;;;4937492;28;89590;-75
2024/02/13 13:40:37;;;;;;;;;;;;;;;;;;4936123;28;91201;-69
2024/02/13 13:43:03;;;;;;;;;;;;;;;;;;4937154;28;89050;-68
2024/02/13 13:45:28;;;;;;;;;;;;;;;;;;4939380;28;89684;-71
2024/02/13 13:47:56;;;;;;;;;;;;;;;;;;4934956;28;89761;-69
2024/02/13 13:50:24;;;;;;;;;;;;;;;;;;4939608;28;90711;-69
2024/02/13 13:52:49;;;;;;;;;;;;;;;;;;4936880;28;90439;-69
2024/02/13 13:55:16;;;;;;;;;;;;;;;;;;4942062;28;89198;-69
2024/02/13 13:57:41;;;;;;;;;;;;;;;;;;4938454;28;89486;-69
2024/02/13 14:00:13;;;;;;;;;;;;;;;;;;4936943;28;90873;-68
2024/02/13 14:02:39;;;;;;;;;;;;;;;;;;4939066;28;91682;-75
2024/02/13 14:05:05;;;;;;;;;;;;;;;;;;4937402;28;89685;-75
2024/02/13 14:07:31;;;;;;;;;;;;;;;;;;4939416;28;89440;-77
2024/02/13 14:09:56;;;;;;;;;;;;;;;;;;4937436;28;90173;-72
2024/02/13 14:12:22;;;;;;;;;;;;;;;;;;4935628;28;89765;-75
2024/02/13 14:14:47;;;;;;;;;;;;;;;;;;4937801;28;90120;-74
2024/02/13 14:17:12;;;;;;;;;;;;;;;;;;4940572;28;91872;-76
2024/02/13 14:19:38;;;;;;;;;;;;;;;;;;4937726;28;89182;-76
2024/02/13 14:22:09;;;;;;;;;;;;;;;;;;4930462;28;89263;-75
2024/02/13 14:24:34;;;;;;;;;;;;;;;;;;4937949;28;92569;-72
2024/02/13 14:27:00;;;;;;;;;;;;;;;;;;4940812;28;89917;-69
2024/02/13 14:29:25;;;;;;;;;;;;;;;;;;4945341;28;90144;-70
2024/02/13 14:31:50;;;;;;;;;;;;;;;;;;4936735;28;90749;-70
2024/02/13 14:34:15;;;;;;;;;;;;;;;;;;4930262;28;89558;-74
2024/02/13 14:36:43;;;;;;;;;;;;;;;;;;4939390;28;89426;-70
2024/02/13 14:39:08;;;;;;;;;;;;;;;;;;4938012;28;89167;-71
2024/02/13 14:41:35;;;;;;;;;;;;;;;;;;4936975;28;89542;-75
2024/02/13 14:44:03;;;;;;;;;;;;;;;;;;4938010;28;90646;-71
2024/02/13 14:46:29;;;;;;;;;;;;;;;;;;4938150;28;90400;-76
2024/02/13 14:48:54;;;;;;;;;;;;;;;;;;4941582;28;89748;-73
2024/02/13 14:51:19;;;;;;;;;;;;;;;;;;4937545;28;89566;-75
2024/02/13 14:53:48;;;;;;;;;;;;;;;;;;4930558;28;90379;-72
2024/02/13 14:56:14;;;;;;;;;;;;;;;;;;4939279;28;89603;-71
2024/02/13 14:58:39;;;;;;;;;;;;;;;;;;4938233;28;90100;-74
2024/02/13 15:02:29;;;;;;;;;;;;;;;;;;5063976;27;82793;-69
2024/02/13 15:04:54;;;;;;;;;;;;;;;;;;5044264;27;88977;-69
2024/02/13 15:07:21;;;;;;;;;;;;;;;;;;5036322;27;90080;-72
2024/02/13 15:09:51;;;;;;;;;;;;;;;;;;5051594;27;89470;-72
2024/02/13 15:12:18;;;;;;;;;;;;;;;;;;5047606;27;89473;-72
2024/02/13 15:14:43;;;;;;;;;;;;;;;;;;5055559;27;89713;-72
2024/02/13 15:17:10;;;;;;;;;;;;;;;;;;5052104;27;89513;-72
2024/02/13 15:19:37;;;;;;;;;;;;;;;;;;5059909;27;89553;-77
2024/02/13 15:22:03;;;;;;;;;;;;;;;;;;5046480;27;92428;-75
2024/02/13 15:24:28;;;;;;;;;;;;;;;;;;5055262;27;89438;-75
2024/02/13 15:26:54;;;;;;;;;;;;;;;;;;5054411;27;89848;-72
2024/02/13 15:29:20;;;;;;;;;;;;;;;;;;5049516;27;89703;-76
2024/02/13 15:31:46;;;;;;;;;;;;;;;;;;5054268;27;89648;-71
2024/02/13 15:34:12;;;;;;;;;;;;;;;;;;5052544;27;89853;-72
2024/02/13 15:36:58;;;;;;;;;;;;;;;;;;5053346;27;90192;-74
2024/02/13 15:47:34;;;;;;;;;;;;;;;;;;5052668;27;89555;-73
2024/02/13 15:50:01;;;;;;;;;;;;;;;;;;5053296;27;89805;-78
2024/02/13 15:52:27;;;;;;;;;;;;;;;;;;5050817;27;90639;-73
2024/02/13 15:54:54;;;;;;;;;;;;;;;;;;5058073;27;90393;-71
2024/02/13 15:57:20;;;;;;;;;;;;;;;;;;5046453;27;89654;-77
2024/02/13 15:59:45;;;;;;;;;;;;;;;;;;5057295;27;90699;-76
2024/02/13 16:02:10;;;;;;;;;;;;;;;;;;5060234;27;89469;-81
2024/02/13 16:04:36;;;;;;;;;;;;;;;;;;5047085;27;89114;-76
2024/02/13 16:07:03;;;;;;;;;;;;;;;;;;5053133;27;90635;-75
2024/02/13 16:09:28;;;;;;;;;;;;;;;;;;5046847;27;89097;-75
2024/02/13 16:11:54;;;;;;;;;;;;;;;;;;5033472;27;90756;-75
2024/02/13 16:14:19;;;;;;;;;;;;;;;;;;5026756;27;92022;-75
2024/02/13 16:16:45;;;;;;;;;;;;;;;;;;5021779;27;89559;-75
2024/02/13 16:19:10;;;;;;;;;;;;;;;;;;4989381;28;89419;-77
2024/02/13 16:21:36;;;;;;;;;;;;;;;;;;4989270;28;89678;-77
2024/02/13 16:24:02;;;;;;;;;;;;;;;;;;4987466;28;89158;-75
2024/02/13 16:26:28;;;;;;;;;;;;;;;;;;4986619;28;92273;-78
2024/02/13 16:28:54;;;;;;;;;;;;;;;;;;4990640;28;90625;-80
2024/02/13 16:31:21;;;;;;;;;;;;;;;;;;4988895;28;89537;-77
2024/02/13 16:33:47;;;;;;;;;;;;;;;;;;4989847;28;89217;-77
2024/02/13 16:36:15;;;;;;;;;;;;;;;;;;4992370;28;89649;-77
2024/02/13 16:38:40;;;;;;;;;;;;;;;;;;4986197;28;90198;-78
2024/02/13 16:41:05;;;;;;;;;;;;;;;;;;4985540;28;89937;-76
2024/02/13 16:43:31;;;;;;;;;;;;;;;;;;5018467;28;89601;-80
2024/02/13 16:45:57;;;;;;;;;;;;;;;;;;4987662;28;89601;-78
2024/02/13 16:48:22;;;;;;;;;;;;;;;;;;4985420;28;90457;-79
2024/02/13 16:50:47;;;;;;;;;;;;;;;;;;4990732;28;89355;-77